createdAt,value
2018-04-15T00:00:01.729Z,16.87
2018-04-15T00:02:30.927Z,18.90
2018-04-15T00:04:59.941Z,19.17
2018-04-15T00:07:29.110Z,17.10
2018-04-15T00:09:58.205Z,13.37
2018-04-15T00:12:26.890Z,16.63
2018-04-15T00:14:55.984Z,12.80
2018-04-15T00:17:24.974Z,22.77
2018-04-15T00:19:53.765Z,22.90
2018-04-15T00:22:22.807Z,23.60
2018-04-15T00:24:51.955Z,21.87
2018-04-15T00:27:21.053Z,17.17
2018-04-15T00:29:50.060Z,20.57
2018-04-15T00:32:18.726Z,21.00
2018-04-15T00:34:47.527Z,15.90
2018-04-15T00:37:16.209Z,16.07
2018-04-15T00:39:44.889Z,19.97
2018-04-15T00:42:13.576Z,15.50
2018-04-15T00:44:42.559Z,16.43
2018-04-15T00:47:11.675Z,14.93
2018-04-15T00:49:40.863Z,19.97
2018-04-15T00:52:09.834Z,21.17
2018-04-15T00:54:38.525Z,15.30
2018-04-15T00:57:07.217Z,18.60
2018-04-15T00:59:36.262Z,56.63
2018-04-15T01:02:05.107Z,26.77
2018-04-15T01:04:34.207Z,18.10
2018-04-15T01:07:02.891Z,17.17
2018-04-15T01:09:31.984Z,20.40
2018-04-15T01:12:01.079Z,21.13
2018-04-15T01:14:30.183Z,23.77
2018-04-15T01:16:59.154Z,23.70
2018-04-15T01:19:27.895Z,19.47
2018-04-15T01:21:56.851Z,19.30
2018-04-15T01:24:25.738Z,17.60
2018-04-15T01:26:54.747Z,17.23
2018-04-15T01:29:23.437Z,20.23
2018-04-15T01:31:52.157Z,16.70
2018-04-15T01:34:21.299Z,21.00
2018-04-15T01:36:50.313Z,19.43
2018-04-15T01:39:18.981Z,15.00
2018-04-15T01:41:47.672Z,16.23
2018-04-15T01:44:16.717Z,14.73
2018-04-15T01:46:45.531Z,17.93
2018-04-15T01:49:14.573Z,14.87
2018-04-15T01:51:43.742Z,15.97
2018-04-15T01:54:12.830Z,15.97
2018-04-15T01:56:41.928Z,18.03
2018-04-15T01:59:10.938Z,17.97
2018-04-15T02:01:39.605Z,17.63
2018-04-15T02:04:08.302Z,17.27
2018-04-15T02:06:37.765Z,20.07
2018-04-15T02:09:06.980Z,16.97
2018-04-15T02:11:36.091Z,18.70
2018-04-15T02:14:05.182Z,15.63
2018-04-15T02:16:34.184Z,20.17
2018-04-15T02:19:03.752Z,17.27
2018-04-15T02:21:32.771Z,17.93
2018-04-15T02:24:01.484Z,17.87
2018-04-15T02:26:30.254Z,15.87
2018-04-15T02:28:59.292Z,17.33
2018-04-15T02:31:27.827Z,16.93
2018-04-15T02:33:56.718Z,19.53
2018-04-15T02:36:25.812Z,19.40
2018-04-15T02:38:54.757Z,17.77
2018-04-15T02:41:23.594Z,16.90
2018-04-15T02:43:52.242Z,18.93
2018-04-15T02:46:20.909Z,19.37
2018-04-15T02:48:50.052Z,23.33
2018-04-15T02:51:18.748Z,17.87
2018-04-15T02:53:47.733Z,19.10
2018-04-15T02:56:16.539Z,18.67
2018-04-15T02:58:45.466Z,18.73
2018-04-15T03:01:14.158Z,16.70
2018-04-15T03:03:42.902Z,19.20
2018-04-15T03:06:11.992Z,16.27
2018-04-15T03:08:40.774Z,19.33
2018-04-15T03:11:09.778Z,22.37
2018-04-15T03:13:38.824Z,17.97
2018-04-15T03:16:07.534Z,17.93
2018-04-15T03:18:36.225Z,18.40
2018-04-15T03:21:04.946Z,19.70
2018-04-15T03:23:34.117Z,17.30
2018-04-15T03:26:03.199Z,25.03
2018-04-15T03:28:32.217Z,17.98
2018-04-15T03:31:00.988Z,17.43
2018-04-15T03:33:29.816Z,18.77
2018-04-15T03:35:58.772Z,17.50
2018-04-15T03:38:27.409Z,17.40
2018-04-15T03:40:56.050Z,18.63
2018-04-15T03:43:24.746Z,20.95
2018-04-15T03:45:53.833Z,20.90
2018-04-15T03:48:22.609Z,22.13
2018-04-15T03:50:51.271Z,20.43
2018-04-15T03:53:20.316Z,26.80
2018-04-15T03:55:49.083Z,19.97
2018-04-15T03:58:18.174Z,18.20
2018-04-15T04:00:46.810Z,17.90
2018-04-15T04:03:15.878Z,17.77
2018-04-15T04:05:44.568Z,16.87
2018-04-15T04:08:13.238Z,22.43
2018-04-15T04:10:42.420Z,20.37
2018-04-15T04:13:11.924Z,19.23
2018-04-15T04:15:41.029Z,18.40
2018-04-15T04:18:21.995Z,19.33
2018-04-15T04:21:02.556Z,19.07
2018-04-15T04:23:43.120Z,23.40
2018-04-15T04:26:12.215Z,17.90
2018-04-15T04:28:40.903Z,17.70
2018-04-15T04:31:09.808Z,15.83
2018-04-15T04:33:38.683Z,21.97
2018-04-15T04:36:07.780Z,19.07
2018-04-15T04:38:36.811Z,19.60
2018-04-15T04:41:05.765Z,17.87
2018-04-15T04:43:34.567Z,17.27
2018-04-15T04:46:03.236Z,15.77
2018-04-15T04:48:32.276Z,18.07
2018-04-15T04:51:01.017Z,16.80
2018-04-15T04:53:29.711Z,18.57
2018-04-15T04:55:58.377Z,15.73
2018-04-15T04:58:27.179Z,17.87
2018-04-15T05:00:56.185Z,17.93
2018-04-15T05:03:25.252Z,16.53
2018-04-15T05:05:54.464Z,16.47
2018-04-15T05:08:23.459Z,17.73
2018-04-15T05:10:52.152Z,16.23
2018-04-15T05:13:21.073Z,15.70
2018-04-15T05:15:50.036Z,18.30
2018-04-15T05:18:19.027Z,20.73
2018-04-15T05:20:47.796Z,19.07
2018-04-15T05:23:16.460Z,16.47
2018-04-15T05:25:45.182Z,17.97
2018-04-15T05:28:14.220Z,15.63
2018-04-15T05:30:43.367Z,18.20
2018-04-15T05:33:12.428Z,13.67
2018-04-15T05:35:41.473Z,14.63
2018-04-15T05:38:10.137Z,18.80
2018-04-15T05:40:39.750Z,16.27
2018-04-15T05:43:08.434Z,17.87
2018-04-15T05:45:37.540Z,21.37
2018-04-15T05:48:06.624Z,19.53
2018-04-15T05:50:35.971Z,18.77
2018-04-15T05:53:04.718Z,16.30
2018-04-15T05:55:33.457Z,16.57
2018-04-15T05:58:02.501Z,18.53
2018-04-15T06:00:32.101Z,16.77
2018-04-15T06:03:01.198Z,17.73
2018-04-15T06:05:30.291Z,18.47
2018-04-15T06:07:59.315Z,17.57
2018-04-15T06:10:28.484Z,17.37
2018-04-15T06:12:57.545Z,20.37
2018-04-15T06:15:26.671Z,16.37
2018-04-15T06:17:55.679Z,18.60
2018-04-15T06:20:24.346Z,20.87
2018-04-15T06:22:53.140Z,21.20
2018-04-15T06:25:22.080Z,17.93
2018-04-15T06:27:50.822Z,16.17
2018-04-15T06:30:19.491Z,16.53
2018-04-15T06:32:48.210Z,16.73
2018-04-15T06:35:17.388Z,16.17
2018-04-15T06:37:46.340Z,17.80
2018-04-15T06:40:15.057Z,20.63
2018-04-15T06:42:43.773Z,20.33
2018-04-15T06:45:12.484Z,20.63
2018-04-15T06:47:41.633Z,16.90
2018-04-15T06:50:10.736Z,16.80
2018-04-15T06:52:39.664Z,17.67
2018-04-15T06:55:08.507Z,15.90
2018-04-15T06:57:37.608Z,14.27
2018-04-15T07:00:06.719Z,16.50
2018-04-15T07:02:35.756Z,16.03
2018-04-15T07:05:04.487Z,18.50
2018-04-15T07:07:33.574Z,14.30
2018-04-15T07:10:02.585Z,17.07
2018-04-15T07:12:31.766Z,15.50
2018-04-15T07:15:00.392Z,18.83
2018-04-15T07:17:29.546Z,17.17
2018-04-15T07:19:58.647Z,17.03
2018-04-15T07:22:27.324Z,17.30
2018-04-15T07:24:56.426Z,16.97
2018-04-15T07:27:25.315Z,20.73
2018-04-15T07:29:54.545Z,19.03
2018-04-15T07:32:23.710Z,20.13
2018-04-15T07:34:52.956Z,18.93
2018-04-15T07:37:21.845Z,17.70
2018-04-15T07:39:50.510Z,19.97
2018-04-15T07:42:19.249Z,18.07
2018-04-15T07:44:48.296Z,17.47
2018-04-15T07:47:17.460Z,15.93
2018-04-15T07:49:46.401Z,18.57
2018-04-15T07:52:15.143Z,17.33
2018-04-15T07:54:44.210Z,20.80
2018-04-15T07:57:12.928Z,14.50
2018-04-15T07:59:41.694Z,25.93
2018-04-15T08:02:10.401Z,13.80
2018-04-15T08:04:39.405Z,15.47
2018-04-15T08:07:08.071Z,17.97
2018-04-15T08:09:36.862Z,15.37
2018-04-15T08:12:05.957Z,16.77
2018-04-15T08:14:34.946Z,14.60
2018-04-15T08:17:03.639Z,15.27
2018-04-15T08:19:32.359Z,17.97
2018-04-15T08:22:01.516Z,14.00
2018-04-15T08:24:30.464Z,14.23
2018-04-15T08:26:59.723Z,12.53
2018-04-15T08:29:28.371Z,13.53
2018-04-15T08:31:57.895Z,11.67
2018-04-15T08:34:26.992Z,20.03
2018-04-15T08:36:56.085Z,11.17
2018-04-15T08:39:25.138Z,17.20
2018-04-15T08:41:54.279Z,17.23
2018-04-15T08:44:23.371Z,13.93
2018-04-15T08:46:52.059Z,11.40
2018-04-15T08:49:21.156Z,13.30
2018-04-15T08:51:50.248Z,13.07
2018-04-15T08:54:19.264Z,13.13
2018-04-15T08:56:48.280Z,13.93
2018-04-15T08:59:16.974Z,12.00
2018-04-15T09:01:45.694Z,11.47
2018-04-15T09:04:14.384Z,11.10
2018-04-15T09:06:43.179Z,12.40
2018-04-15T09:09:12.278Z,10.40
2018-04-15T09:11:41.283Z,11.67
2018-04-15T09:14:10.374Z,13.70
2018-04-15T09:16:39.064Z,11.30
2018-04-15T09:19:08.245Z,12.90
2018-04-15T09:21:37.274Z,11.17
2018-04-15T09:24:06.366Z,11.90
2018-04-15T09:26:35.535Z,11.80
2018-04-15T09:29:04.637Z,10.87
2018-04-15T09:31:33.663Z,9.67
2018-04-15T09:34:02.333Z,12.43
2018-04-15T09:36:31.505Z,17.33
2018-04-15T09:39:00.194Z,10.53
2018-04-15T09:41:29.694Z,10.80
2018-04-15T09:43:58.791Z,12.60
2018-04-15T09:46:27.768Z,11.33
2018-04-15T09:48:56.459Z,11.40
2018-04-15T09:51:25.248Z,11.17
2018-04-15T09:53:54.351Z,14.17
2018-04-15T09:56:23.707Z,12.83
2018-04-15T09:58:52.423Z,15.57
2018-04-15T10:01:21.226Z,11.37
2018-04-15T10:03:50.258Z,11.30
2018-04-15T10:06:19.417Z,11.17
2018-04-15T10:08:48.391Z,9.83
2018-04-15T10:11:17.521Z,10.27
2018-04-15T10:13:46.225Z,11.63
2018-04-15T10:16:15.388Z,12.13
2018-04-15T10:18:44.482Z,11.13
2018-04-15T10:21:13.588Z,9.13
2018-04-15T10:23:42.192Z,12.77
2018-04-15T10:26:10.858Z,10.23
2018-04-15T10:28:40.455Z,12.17
2018-04-15T10:31:09.552Z,12.67
2018-04-15T10:33:38.635Z,12.13
2018-04-15T10:36:07.628Z,10.67
2018-04-15T10:38:36.321Z,9.70
2018-04-15T10:41:05.036Z,10.87
2018-04-15T10:43:34.205Z,10.90
2018-04-15T10:46:03.311Z,9.53
2018-04-15T10:48:32.399Z,13.00
2018-04-15T10:51:01.494Z,10.13
2018-04-15T10:53:30.183Z,11.17
2018-04-15T10:55:59.275Z,14.47
2018-04-15T10:58:28.382Z,13.80
2018-04-15T11:00:57.475Z,11.70
2018-04-15T11:03:26.415Z,9.10
2018-04-15T11:05:55.556Z,10.23
2018-04-15T11:08:24.320Z,10.13
2018-04-15T11:10:53.439Z,10.03
2018-04-15T11:13:21.950Z,11.18
2018-04-15T11:15:50.721Z,8.33
2018-04-15T11:18:19.864Z,7.97
2018-04-15T11:20:48.907Z,8.57
2018-04-15T11:23:18.072Z,9.47
2018-04-15T11:25:46.779Z,10.77
2018-04-15T11:28:15.833Z,8.83
2018-04-15T11:30:44.968Z,10.33
2018-04-15T11:33:13.914Z,8.40
2018-04-15T11:35:42.422Z,8.33
2018-04-15T11:38:11.444Z,14.00
2018-04-15T11:40:41.291Z,9.90
2018-04-15T11:43:10.281Z,10.07
2018-04-15T11:45:39.022Z,8.87
2018-04-15T11:48:07.817Z,11.57
2018-04-15T11:50:36.806Z,8.20
2018-04-15T11:53:06.006Z,8.00
2018-04-15T11:55:35.089Z,9.90
2018-04-15T11:58:03.989Z,8.53
2018-04-15T12:00:32.804Z,10.77
2018-04-15T12:03:01.324Z,10.20
2018-04-15T12:05:29.860Z,10.23
2018-04-15T12:07:58.852Z,10.40
2018-04-15T12:10:27.969Z,8.83
2018-04-15T12:12:57.131Z,8.77
2018-04-15T12:15:26.151Z,11.40
2018-04-15T12:17:54.819Z,9.93
2018-04-15T12:20:23.586Z,9.27
2018-04-15T12:22:53.103Z,8.60
2018-04-15T12:25:22.521Z,9.00
2018-04-15T12:27:51.212Z,7.57
2018-04-15T12:30:19.979Z,9.07
2018-04-15T12:32:49.000Z,7.53
2018-04-15T12:35:17.509Z,8.37
2018-04-15T12:37:46.357Z,9.50
2018-04-15T12:40:15.797Z,11.20
2018-04-15T12:42:44.512Z,11.60
2018-04-15T12:45:14.140Z,8.97
2018-04-15T12:47:43.224Z,10.73
2018-04-15T12:50:12.335Z,9.40
2018-04-15T12:52:41.305Z,10.27
2018-04-15T12:55:10.098Z,9.23
2018-04-15T12:57:39.207Z,9.50
2018-04-15T13:00:07.856Z,11.40
2018-04-15T13:02:36.986Z,8.87
2018-04-15T13:05:06.083Z,10.37
2018-04-15T13:07:35.187Z,10.83
2018-04-15T13:10:04.276Z,11.37
2018-04-15T13:12:32.779Z,12.80
2018-04-15T13:15:01.560Z,10.50
2018-04-15T13:17:30.700Z,10.13
2018-04-15T13:19:59.769Z,8.80
2018-04-15T13:22:28.932Z,9.50
2018-04-15T13:24:58.025Z,8.63
2018-04-15T13:27:27.121Z,9.73
2018-04-15T13:29:56.011Z,11.43
2018-04-15T13:32:24.903Z,10.63
2018-04-15T13:34:53.915Z,8.97
2018-04-15T13:37:23.089Z,10.77
2018-04-15T13:39:52.189Z,9.65
2018-04-15T13:42:20.842Z,12.20
2018-04-15T13:44:49.974Z,11.40
2018-04-15T13:47:18.445Z,13.10
2018-04-15T13:49:47.344Z,9.40
2018-04-15T13:52:15.845Z,16.63
2018-04-15T13:54:44.711Z,12.47
2018-04-15T13:57:13.560Z,8.93
2018-04-15T13:59:42.411Z,13.60
2018-04-15T14:02:11.178Z,10.60
2018-04-15T14:04:40.243Z,10.23
2018-04-15T14:07:08.887Z,13.33
2018-04-15T14:09:37.529Z,9.37
2018-04-15T14:12:06.644Z,9.63
2018-04-15T14:14:35.137Z,15.97
2018-04-15T14:17:04.113Z,12.43
2018-04-15T14:19:33.120Z,11.50
2018-04-15T14:22:01.786Z,9.70
2018-04-15T14:24:30.478Z,14.03
2018-04-15T14:27:00.046Z,11.63
2018-04-15T14:29:29.590Z,11.03
2018-04-15T14:31:58.682Z,14.93
2018-04-15T14:34:27.694Z,15.23
2018-04-15T14:36:56.786Z,9.60
2018-04-15T14:39:25.968Z,10.57
2018-04-15T14:41:54.966Z,13.13
2018-04-15T14:44:23.665Z,11.30
2018-04-15T14:46:52.289Z,10.60
2018-04-15T14:49:21.046Z,14.60
2018-04-15T14:51:50.236Z,17.03
2018-04-15T14:54:19.231Z,11.50
2018-04-15T14:56:48.406Z,10.07
2018-04-15T14:59:17.441Z,9.20
2018-04-15T15:01:46.181Z,8.57
2018-04-15T15:04:15.198Z,9.73
2018-04-15T15:06:43.971Z,7.30
2018-04-15T15:09:12.981Z,8.93
2018-04-15T15:11:42.156Z,8.33
2018-04-15T15:14:11.214Z,8.23
2018-04-15T15:16:39.855Z,9.30
2018-04-15T15:19:08.625Z,5.97
2018-04-15T15:21:37.132Z,10.10
2018-04-15T15:24:05.994Z,8.60
2018-04-15T15:26:35.093Z,7.03
2018-04-15T15:29:04.189Z,5.10
2018-04-15T15:31:33.184Z,6.40
2018-04-15T15:34:01.849Z,8.87
2018-04-15T15:36:30.539Z,7.63
2018-04-15T15:38:59.258Z,7.33
2018-04-15T15:41:27.975Z,7.13
2018-04-15T15:43:57.121Z,8.33
2018-04-15T15:46:26.215Z,11.53
2018-04-15T15:48:55.251Z,7.27
2018-04-15T15:51:23.944Z,7.00
2018-04-15T15:53:53.090Z,7.60
2018-04-15T15:56:22.073Z,10.27
2018-04-15T15:58:51.271Z,8.33
2018-04-15T16:01:20.358Z,8.77
2018-04-15T16:03:49.082Z,10.53
2018-04-15T16:06:18.067Z,9.40
2018-04-15T16:08:46.736Z,10.97
2018-04-15T16:11:15.450Z,9.37
2018-04-15T16:13:43.940Z,7.80
2018-04-15T16:16:12.902Z,9.53
2018-04-15T16:18:41.997Z,8.97
2018-04-15T16:21:11.101Z,11.87
2018-04-15T16:23:40.137Z,10.23
2018-04-15T16:26:09.083Z,10.60
2018-04-15T16:28:37.970Z,10.03
2018-04-15T16:31:07.068Z,13.60
2018-04-15T16:33:35.752Z,10.77
2018-04-15T16:36:04.367Z,11.87
2018-04-15T16:38:33.860Z,10.97
2018-04-15T16:41:02.500Z,12.57
2018-04-15T16:43:31.195Z,9.53
2018-04-15T16:45:59.884Z,11.40
2018-04-15T16:48:29.080Z,11.57
2018-04-15T16:50:57.923Z,16.90
2018-04-15T16:53:26.687Z,10.53
2018-04-15T16:55:55.454Z,8.43
2018-04-15T16:58:24.143Z,12.03
2018-04-15T17:00:53.239Z,8.50
2018-04-15T17:03:22.442Z,10.90
2018-04-15T17:05:51.445Z,9.27
2018-04-15T17:08:20.012Z,9.20
2018-04-15T17:10:48.898Z,7.63
2018-04-15T17:13:17.587Z,7.90
2018-04-15T17:15:46.272Z,8.30
2018-04-15T17:18:14.759Z,11.70
2018-04-15T17:20:43.641Z,9.90
2018-04-15T17:23:12.742Z,8.27
2018-04-15T17:25:41.404Z,9.57
2018-04-15T17:28:10.071Z,9.80
2018-04-15T17:30:39.203Z,8.73
2018-04-15T17:33:07.853Z,9.67
2018-04-15T17:35:36.313Z,11.70
2018-04-15T17:38:04.885Z,11.70
2018-04-15T17:40:33.460Z,7.70
2018-04-15T17:43:02.068Z,9.80
2018-04-15T17:45:30.536Z,7.70
2018-04-15T17:47:59.034Z,10.40
2018-04-15T17:50:27.510Z,7.70
2018-04-15T17:52:56.415Z,7.63
2018-04-15T17:55:25.241Z,7.77
2018-04-15T17:57:53.717Z,8.87
2018-04-15T18:00:22.255Z,10.03
2018-04-15T18:02:50.711Z,9.23
2018-04-15T18:05:19.330Z,13.03
2018-04-15T18:07:47.778Z,9.90
2018-04-15T18:10:16.232Z,8.73
2018-04-15T18:12:45.536Z,8.27
2018-04-15T18:15:14.768Z,7.07
2018-04-15T18:17:43.361Z,7.47
2018-04-15T18:20:11.965Z,9.37
2018-04-15T18:22:40.433Z,6.87
2018-04-15T18:25:08.916Z,8.07
2018-04-15T18:27:37.414Z,9.00
2018-04-15T18:30:05.888Z,7.47
2018-04-15T18:32:34.453Z,11.73
2018-04-15T18:35:02.965Z,11.83
2018-04-15T18:37:31.537Z,14.20
2018-04-15T18:40:00.015Z,9.00
2018-04-15T18:42:28.609Z,10.57
2018-04-15T18:44:57.146Z,9.37
2018-04-15T18:47:25.609Z,7.80
2018-04-15T18:49:54.090Z,9.20
2018-04-15T18:52:22.612Z,10.07
2018-04-15T18:54:51.121Z,7.70
2018-04-15T18:57:19.666Z,8.43
2018-04-15T18:59:48.152Z,10.90
2018-04-15T19:02:16.814Z,8.10
2018-04-15T19:04:45.320Z,10.17
2018-04-15T19:07:14.170Z,7.30
2018-04-15T19:09:43.455Z,11.63
2018-04-15T19:12:11.999Z,9.50
2018-04-15T19:14:41.138Z,10.33
2018-04-15T19:17:09.759Z,9.53
2018-04-15T19:19:38.303Z,12.07
2018-04-15T19:22:08.016Z,10.35
2018-04-15T19:24:36.487Z,9.80
2018-04-15T19:27:05.090Z,7.73
2018-04-15T19:29:34.315Z,11.23
2018-04-15T19:32:03.167Z,11.03
2018-04-15T19:34:31.697Z,8.60
2018-04-15T19:37:00.281Z,11.43
2018-04-15T19:39:28.756Z,9.27
2018-04-15T19:41:57.318Z,8.77
2018-04-15T19:44:25.756Z,8.00
2018-04-15T19:46:54.872Z,9.60
2018-04-15T19:49:23.461Z,8.10
2018-04-15T19:51:52.022Z,8.17
2018-04-15T19:54:20.543Z,10.00
2018-04-15T19:56:49.054Z,9.77
2018-04-15T19:59:17.568Z,8.97
2018-04-15T20:01:46.021Z,9.53
2018-04-15T20:04:14.753Z,9.77
2018-04-15T20:06:43.270Z,10.13
2018-04-15T20:09:11.772Z,8.13
2018-04-15T20:11:40.223Z,9.93
2018-04-15T20:14:08.685Z,9.37
2018-04-15T20:16:37.208Z,8.93
2018-04-15T20:19:05.733Z,9.60
2018-04-15T20:21:34.204Z,9.73
2018-04-15T20:24:02.750Z,9.37
2018-04-15T20:26:31.203Z,13.07
2018-04-15T20:28:59.785Z,9.73
2018-04-15T20:31:28.993Z,10.80
2018-04-15T20:33:57.460Z,10.97
2018-04-15T20:36:25.926Z,9.68
2018-04-15T20:38:54.406Z,10.30
2018-04-15T20:41:23.382Z,9.27
2018-04-15T20:43:51.963Z,9.57
2018-04-15T20:46:20.460Z,8.70
2018-04-15T20:48:49.108Z,9.60
2018-04-15T20:51:17.666Z,10.77
2018-04-15T20:53:46.175Z,11.73
2018-04-15T20:56:14.734Z,9.77
2018-04-15T20:58:43.200Z,8.70
2018-04-15T21:01:11.857Z,9.27
2018-04-15T21:03:40.757Z,9.33
2018-04-15T21:06:09.425Z,8.47
2018-04-15T21:08:37.881Z,9.97
2018-04-15T21:11:06.384Z,10.67
2018-04-15T21:13:34.884Z,9.70
2018-04-15T21:16:04.247Z,10.43
2018-04-15T21:18:32.702Z,10.10
2018-04-15T21:21:01.268Z,9.37
2018-04-15T21:23:29.771Z,12.93
2018-04-15T21:25:58.240Z,8.77
2018-04-15T21:28:26.749Z,9.33
2018-04-15T21:30:55.357Z,14.77
2018-04-15T21:33:23.843Z,9.07
2018-04-15T21:35:52.375Z,9.07
2018-04-15T21:38:20.908Z,10.70
2018-04-15T21:40:49.508Z,10.43
2018-04-15T21:43:18.999Z,11.10
2018-04-15T21:45:47.512Z,13.27
2018-04-15T21:48:16.073Z,9.60
2018-04-15T21:50:45.298Z,13.57
2018-04-15T21:53:13.846Z,9.47
2018-04-15T21:55:42.289Z,10.87
2018-04-15T21:58:10.758Z,10.07
2018-04-15T22:00:39.290Z,8.83
2018-04-15T22:03:08.578Z,9.83
2018-04-15T22:05:37.873Z,12.47
2018-04-15T22:08:06.373Z,11.77
2018-04-15T22:10:35.749Z,10.07
2018-04-15T22:13:09.140Z,10.87
2018-04-15T22:15:37.600Z,10.73
2018-04-15T22:18:06.060Z,10.00
2018-04-15T22:20:34.573Z,11.77
2018-04-15T22:23:03.038Z,10.67
2018-04-15T22:25:31.506Z,10.67
2018-04-15T22:28:00.157Z,12.23
2018-04-15T22:30:29.408Z,10.73
2018-04-15T22:32:58.452Z,10.85
2018-04-15T22:35:27.135Z,10.23
2018-04-15T22:37:55.658Z,10.67
2018-04-15T22:40:24.127Z,10.47
2018-04-15T22:42:52.619Z,12.93
2018-04-15T22:45:21.106Z,9.37
2018-04-15T22:47:55.414Z,10.70
2018-04-15T22:50:23.969Z,11.67
2018-04-15T22:52:52.506Z,11.33
2018-04-15T22:55:20.970Z,11.87
2018-04-15T22:57:49.807Z,10.83
2018-04-15T23:00:18.321Z,12.37
2018-04-15T23:02:46.829Z,11.23
2018-04-15T23:05:16.695Z,14.30
2018-04-15T23:07:45.222Z,13.63
2018-04-15T23:10:13.716Z,11.10
2018-04-15T23:12:43.033Z,13.70
2018-04-15T23:15:12.358Z,14.30
2018-04-15T23:17:40.871Z,12.00
2018-04-15T23:20:09.434Z,12.90
2018-04-15T23:22:38.309Z,12.97
2018-04-15T23:25:06.874Z,11.20
2018-04-15T23:27:35.386Z,9.67
2018-04-15T23:30:03.972Z,11.57
2018-04-15T23:32:33.052Z,11.33
2018-04-15T23:35:02.056Z,10.93
2018-04-15T23:37:30.752Z,12.37
2018-04-15T23:39:59.462Z,11.40
2018-04-15T23:42:28.615Z,12.37
2018-04-15T23:44:57.710Z,12.50
2018-04-15T23:47:26.812Z,11.90
2018-04-15T23:49:55.295Z,13.00
2018-04-15T23:52:24.175Z,12.93
2018-04-15T23:54:53.192Z,10.77
2018-04-15T23:57:22.376Z,11.33
2018-04-15T23:59:51.349Z,12.27
